Tropical Cyclones
[Index]
Season 2020-2021 Tropical Cyclone ZAZU Track Map
Season 2020-2021 Summaries (Operational Data): [AU] [SIO] [SPAC] [SH]
<<- Previous TC | 2020-2021 Season | Next TC ->>

click for intensity scale information  Lat/long Grid: Show Hide

 Date Labels: Show Hide

Operational Tropical Cyclone Data

Name: ZAZU
Number: 2106

12 Dec 2020 06:00 UTC to 21 Dec 2020 12:00 UTC

    date/time    lat    long     hPa   cat  kts
2020-12-12 06   14.2   170.1W   1010         15          
2020-12-12 12   15.0   170.4W                20          
2020-12-12 18   15.6   171.0W   1006         20          
2020-12-13 00   16.0   171.7W   1005         20          
2020-12-13 06   16.6   172.7W   1002         25          
2020-12-13 12   17.0   173.4W   1003         30          
2020-12-13 18   17.5   173.8W   1002         30          
2020-12-14 00   17.9   174.1W   1000    1    35          
2020-12-14 06   18.2   174.3W    995    1    40          
2020-12-14 12   18.5   174.3W    995    1    40          
2020-12-14 18   18.7   174.3W    992    1    40          
2020-12-15 00   18.9   174.1W    990    1    45          
2020-12-15 06   19.0   173.3W    990    1    45          
2020-12-15 12   19.6   172.3W    990    1    45          
2020-12-15 18   20.3   171.2W    985    2    50          
2020-12-16 00   21.0   170.2W    985    2    50          
2020-12-16 06   21.8   168.6W    985    2    50          
2020-12-16 12   23.6   167.0W    985    2    50          
2020-12-16 18   25.9   165.2W    989    1    45          
2020-12-17 00   26.8   165.8W                            
2020-12-17 06   28.4   165.1W                            
2020-12-17 12   30.4   164.3W                            
2020-12-17 18   32.0   162.4W                            
2020-12-18 00   32.1   162.1W                            
2020-12-18 06   31.7   160.1W                            
2020-12-18 12   32.2   157.5W                            
2020-12-18 18   31.3   156.1W                            
2020-12-19 00   32.3   154.7W                            
2020-12-19 06   32.4   154.5W                            
2020-12-19 12   32.4   154.6W                            
2020-12-19 18   32.9   154.6W                            
2020-12-20 00   34.3   154.9W                            
2020-12-20 06   34.9   155.1W                            
2020-12-20 12   36.7   155.4W                            
2020-12-20 18   37.9   155.7W                            
2020-12-21 00   38.9   155.3W                            
2020-12-21 06   39.9   155.0W                            
2020-12-21 12   40.4   154.4W                            
Winds were reported as (or converted to) 10-min average.

Tropical cyclone tracks developed by Michael Bath using operational warnings and advisories and Google Maps.


Document: tropical_cyclone_zazu.htm
Updated: 7 May 2021
[Australian Severe Weather index] [Copyright Notice] [Email Contacts] [Search This Site] [Privacy Policy]


Main Index Home Page Stock Weather Photos Extreme Storms Discussion Storm News and Storm Chasing Reports Tropical Cyclones / Hurricanes / Typhoons Weather Data and Links Wild Fires / Bushfires Weather Observation Techniques Weather Picture Catalogue Tornado Pictures and Reports Stock Video Footage and DVDs for sale